Time;durP1;ratioP1;P1;durP2;ratioP2;P2;SDS_P1;SDS_P2;PMS_P1;PMS_P2;Temp;Humidity;BMP_temperature;BMP_pressure;BME280_temperature;BME280_humidity;BME280_pressure;Samples;Min_cycle;Max_cycle;Signal;HPM_P1;HPM_P2
2022/11/19 00:14:07;;;;;;;15.43;7.25;;;;;;;-3.79;69.41;99638.53;30492303;28;97270;-71
2022/11/19 00:29:10;;;;;;;13.20;7.40;;;;;;;-3.25;69.90;99656.13;30492337;28;96730;-69
2022/11/19 00:44:10;;;;;;;16.25;8.18;;;;;;;-2.87;69.42;99671.13;30503019;28;96749;-71
2022/11/19 00:59:11;;;;;;;17.60;8.95;;;;;;;-2.66;69.64;99668.09;30510840;28;96980;-71
2022/11/19 01:14:11;;;;;;;19.42;7.80;;;;;;;-2.49;68.74;99672.19;30509424;28;96774;-72
2022/11/19 01:29:12;;;;;;;12.95;8.10;;;;;;;-2.25;69.41;99664.53;30508499;28;96811;-72
2022/11/19 01:44:49;;;;;;;18.80;9.05;;;;;;;-2.22;68.98;99669.56;30506922;28;96789;-65
2022/11/19 01:59:51;;;;;;;17.05;8.02;;;;;;;-2.09;68.73;99691.31;30505562;28;97336;-71
2022/11/19 02:15:03;;;;;;;16.00;8.10;;;;;;;-2.07;69.38;99688.59;30502947;28;96803;-71
2022/11/19 02:30:31;;;;;;;16.20;9.02;;;;;;;-1.95;68.79;99713.06;30502950;28;96803;-71
2022/11/19 02:45:36;;;;;;;14.25;8.43;;;;;;;-1.87;68.73;99714.19;30499954;28;96753;-71
2022/11/19 03:31:35;;;;;;;15.40;8.23;;;;;;;-1.79;68.37;99744.19;30498066;28;96695;-71
2022/11/19 03:46:38;;;;;;;11.60;7.30;;;;;;;-2.24;67.43;99754.94;30495137;28;97521;-70
2022/11/19 04:01:39;;;;;;;13.07;6.78;;;;;;;-2.97;67.34;99761.25;30494310;28;96727;-69
2022/11/19 04:16:39;;;;;;;7.88;4.88;;;;;;;-3.42;67.42;99772.59;30491410;28;96737;-70
2022/11/19 04:31:40;;;;;;;11.35;5.40;;;;;;;-3.75;66.78;99786.63;30490892;28;98169;-70
2022/11/19 04:46:40;;;;;;;10.65;5.80;;;;;;;-4.19;67.01;99808.22;30489617;28;96857;-68
2022/11/19 05:01:41;;;;;;;10.32;6.03;;;;;;;-4.32;67.13;99804.63;30488828;28;96613;-69
2022/11/19 05:16:41;;;;;;;13.98;7.45;;;;;;;-4.68;67.88;99808.31;30487104;28;97099;-70
2022/11/19 05:31:42;;;;;;;17.02;7.80;;;;;;;-4.93;69.02;99815.66;30500778;28;97814;-70
2022/11/19 05:46:42;;;;;;;16.92;8.98;;;;;;;-5.10;69.41;99829.53;30505793;28;96844;-70
2022/11/19 06:01:43;;;;;;;17.48;9.45;;;;;;;-5.20;69.86;99846.47;30504166;28;96643;-70
2022/11/19 06:16:43;;;;;;;18.17;9.93;;;;;;;-5.29;70.67;99876.38;30501177;28;96693;-69
2022/11/19 06:31:44;;;;;;;18.40;10.25;;;;;;;-5.20;71.55;99880.25;30500707;28;96753;-69
2022/11/19 06:46:44;;;;;;;19.02;11.00;;;;;;;-4.90;72.11;99883.97;30496840;28;96674;-69
2022/11/19 07:01:45;;;;;;;15.55;10.82;;;;;;;-4.67;72.22;99896.59;30497214;28;96952;-68
2022/11/19 07:16:45;;;;;;;21.50;10.43;;;;;;;-3.47;73.43;99912.66;30494917;28;96699;-68
2022/11/19 07:31:49;;;;;;;15.65;10.82;;;;;;;-1.58;73.15;99930.00;30495205;28;97812;-70
2022/11/19 07:46:49;;;;;;;21.85;10.88;;;;;;;0.19;71.17;99909.28;30492408;28;97597;-70
2022/11/19 08:01:50;;;;;;;19.85;11.00;;;;;;;2.00;69.50;99920.19;30493214;28;96814;-70
2022/11/19 08:32:09;;;;;;;17.53;9.90;;;;;;;16.63;48.27;99925.81;30486594;28;97654;-68
2022/11/19 08:47:09;;;;;;;12.98;9.35;;;;;;;19.43;35.04;99919.00;30478749;28;97152;-68
2022/11/19 09:02:10;;;;;;;17.65;12.05;;;;;;;19.21;30.75;99934.97;30486891;28;96871;-71
2022/11/19 09:17:10;;;;;;;22.35;15.23;;;;;;;20.01;26.39;99945.41;30498675;28;97363;-79
2022/11/19 09:32:10;;;;;;;21.10;14.10;;;;;;;22.18;22.00;99942.47;30505755;28;96647;-73
2022/11/19 09:47:29;;;;;;;17.88;12.55;;;;;;;21.51;21.71;99944.25;30505140;28;97389;-76
2022/11/19 10:02:30;;;;;;;17.13;12.53;;;;;;;20.07;21.41;99936.34;30503444;28;97344;-69
2022/11/19 10:17:51;;;;;;;19.35;13.02;;;;;;;22.26;19.25;99942.00;30501065;28;97546;-76
2022/11/19 10:33:00;;;;;;;19.27;12.43;;;;;;;19.50;21.58;99924.28;30496489;28;97665;-74
2022/11/19 10:48:23;;;;;;;12.20;8.73;;;;;;;21.10;17.65;99927.41;30500014;28;97319;-76
2022/11/19 11:03:33;;;;;;;13.80;10.67;;;;;;;13.29;24.06;99927.19;30498555;28;96823;-75
2022/11/19 11:18:34;;;;;;;12.93;9.40;;;;;;;19.97;20.27;99893.72;30494399;28;97331;-76
2022/11/19 11:33:38;;;;;;;8.20;5.93;;;;;;;23.43;16.94;99888.22;30494227;28;96644;-76
2022/11/19 11:48:46;;;;;;;10.93;8.37;;;;;;;23.22;15.61;99890.78;30494405;28;97402;-76
2022/11/19 12:03:55;;;;;;;7.03;5.73;;;;;;;23.19;14.76;99877.72;30492186;28;97498;-74
2022/11/19 12:19:20;;;;;;;8.90;6.60;;;;;;;23.13;14.40;99889.66;30490466;28;96779;-72
2022/11/19 12:34:31;;;;;;;9.07;7.10;;;;;;;14.20;19.80;99881.56;30494790;28;96755;-76
2022/11/19 12:49:38;;;;;;;10.40;7.50;;;;;;;19.90;16.40;99877.63;30510697;28;96619;-77
2022/11/19 13:04:46;;;;;;;9.33;7.27;;;;;;;17.54;17.82;99884.09;30509419;28;96678;-76
2022/11/19 13:19:55;;;;;;;9.30;6.70;;;;;;;16.94;17.90;99867.69;30507399;28;97179;-71
2022/11/19 13:35:22;;;;;;;10.80;8.00;;;;;;;16.37;18.63;99868.47;30506741;28;96675;-76
2022/11/19 13:50:36;;;;;;;11.60;8.23;;;;;;;14.67;20.80;99870.94;30494619;28;96880;-75
2022/11/19 14:05:43;;;;;;;9.67;7.20;;;;;;;12.75;22.64;99870.59;30504072;28;97395;-72
2022/11/19 14:36:12;;;;;;;11.77;7.67;;;;;;;8.06;28.43;99862.03;30501161;28;97026;-74
2022/11/19 14:51:29;;;;;;;13.65;8.02;;;;;;;3.60;33.68;99871.06;30500491;28;96632;-74
2022/11/19 15:06:36;;;;;;;13.68;7.07;;;;;;;0.64;39.83;99851.84;30497183;28;97288;-72
2022/11/19 15:21:36;;;;;;;15.05;6.38;;;;;;;-0.87;44.73;99863.41;30496273;28;96994;-72
2022/11/19 15:36:49;;;;;;;12.20;6.75;;;;;;;-1.78;46.76;99866.00;30495248;28;97276;-71
2022/11/19 15:51:52;;;;;;;8.32;5.07;;;;;;;-2.32;49.49;99866.75;30493900;28;96701;-65
2022/11/19 16:06:54;;;;;;;8.23;5.10;;;;;;;-2.76;52.14;99864.22;30493471;28;97145;-68
2022/11/19 16:22:00;;;;;;;13.82;7.40;;;;;;;-3.13;53.32;99861.22;30490283;28;96494;-72
2022/11/19 16:37:02;;;;;;;11.82;7.65;;;;;;;-3.30;54.79;99848.31;30491105;28;98772;-69
2022/11/19 16:52:02;;;;;;;16.95;9.02;;;;;;;-3.55;55.65;99852.34;30489422;28;96713;-73
2022/11/19 17:07:03;;;;;;;21.42;9.00;;;;;;;-3.77;56.47;99858.78;30488885;28;96623;-72
2022/11/19 17:22:16;;;;;;;22.15;10.43;;;;;;;-3.92;57.60;99870.06;30492527;28;97325;-68
2022/11/19 17:37:16;;;;;;;22.55;12.77;;;;;;;-4.03;57.96;99877.59;30505261;28;96679;-73
2022/11/19 17:52:21;;;;;;;17.65;10.98;;;;;;;-4.11;59.04;99878.06;30504465;28;97438;-72
2022/11/19 18:07:21;;;;;;;16.50;7.87;;;;;;;-4.23;59.48;99884.75;30503946;28;96988;-64
2022/11/19 18:22:22;;;;;;;13.27;7.72;;;;;;;-4.29;61.01;99890.28;30501113;28;96700;-63
2022/11/19 18:37:22;;;;;;;26.80;12.43;;;;;;;-4.36;61.48;99899.34;30500600;28;97596;-72
2022/11/19 18:52:23;;;;;;;31.73;15.02;;;;;;;-4.53;62.16;99903.66;30499334;28;97379;-72
2022/11/19 19:07:23;;;;;;;30.75;13.80;;;;;;;-4.62;63.05;99911.94;30497915;28;96657;-70
2022/11/19 19:22:23;;;;;;;35.85;15.65;;;;;;;-4.78;63.67;99915.34;30494674;28;96640;-72
2022/11/19 19:37:24;;;;;;;24.90;15.82;;;;;;;-4.86;64.25;99927.06;30494234;28;96621;-63
2022/11/19 19:52:24;;;;;;;26.83;12.80;;;;;;;-5.02;65.09;99917.44;30494097;28;96626;-74
2022/11/19 20:07:25;;;;;;;35.15;17.27;;;;;;;-5.20;65.38;99898.44;30491367;28;97019;-64
2022/11/19 20:22:25;;;;;;;24.48;15.02;;;;;;;-5.23;66.45;99903.78;30489641;28;96599;-73
2022/11/19 20:37:26;;;;;;;34.25;21.45;;;;;;;-5.33;66.43;99907.75;30489264;28;97187;-72
2022/11/19 20:52:26;;;;;;;30.67;16.98;;;;;;;-5.45;66.10;99896.22;30487884;28;97261;-75
2022/11/19 21:07:26;;;;;;;38.63;19.65;;;;;;;-5.44;67.39;99898.75;30508062;28;96614;-76
2022/11/19 21:22:27;;;;;;;41.05;22.17;;;;;;;-5.37;67.55;99894.09;30506463;28;96794;-72
2022/11/19 21:37:27;;;;;;;46.88;22.98;;;;;;;-5.63;67.56;99908.31;30505338;28;96619;-69
2022/11/19 21:52:28;;;;;;;36.35;20.25;;;;;;;-5.55;68.08;99919.19;30502521;28;97323;-73
2022/11/19 22:07:30;;;;;;;34.80;21.35;;;;;;;-5.73;68.78;99909.69;30501744;28;97307;-71
2022/11/19 22:22:30;;;;;;;30.92;17.15;;;;;;;-5.87;68.69;99884.41;30503128;28;96776;-73
2022/11/19 22:37:31;;;;;;;29.48;15.52;;;;;;;-6.06;68.93;99887.06;30501702;28;97577;-73
2022/11/19 22:52:32;;;;;;;27.47;15.27;;;;;;;-6.27;69.40;99892.34;30501194;28;96707;-73
2022/11/19 23:07:32;;;;;;;33.78;20.15;;;;;;;-6.25;70.21;99893.09;30499769;28;97056;-73
2022/11/19 23:22:33;;;;;;;31.05;16.60;;;;;;;-6.26;69.66;99890.56;30496826;28;96708;-73
2022/11/19 23:37:33;;;;;;;28.73;14.07;;;;;;;-6.36;70.68;99885.78;30497396;28;96889;-73
2022/11/19 23:52:33;;;;;;;34.37;17.43;;;;;;;-6.13;71.29;99866.59;30495572;28;97492;-74
